createdAt,value
2018-05-26T00:01:20.230Z,21.11
2018-05-26T00:03:48.606Z,21.14
2018-05-26T00:06:16.468Z,21.16
2018-05-26T00:08:44.547Z,21.11
2018-05-26T00:11:12.754Z,21.09
2018-05-26T00:13:41.144Z,21.07
2018-05-26T00:16:09.274Z,21.01
2018-05-26T00:18:37.448Z,21.03
2018-05-26T00:21:05.441Z,21.04
2018-05-26T00:23:33.591Z,21.06
2018-05-26T00:26:01.786Z,21.04
2018-05-26T00:28:30.039Z,20.98
2018-05-26T00:30:58.175Z,20.92
2018-05-26T00:33:26.486Z,20.88
2018-05-26T00:35:54.456Z,20.89
2018-05-26T00:38:22.505Z,20.83
2018-05-26T00:40:50.798Z,20.86
2018-05-26T00:43:18.769Z,20.81
2018-05-26T00:45:46.848Z,20.78
2018-05-26T00:48:14.857Z,20.76
2018-05-26T00:50:42.862Z,20.69
2018-05-26T00:53:11.157Z,20.64
2018-05-26T00:55:39.333Z,20.60
2018-05-26T00:58:07.457Z,20.51
2018-05-26T01:00:35.883Z,20.54
2018-05-26T01:03:04.058Z,20.53
2018-05-26T01:05:31.898Z,20.51
2018-05-26T01:08:00.302Z,20.49
2018-05-26T01:10:28.480Z,20.45
2018-05-26T01:12:56.341Z,20.44
2018-05-26T01:15:24.720Z,20.38
2018-05-26T01:17:52.793Z,20.37
2018-05-26T01:20:20.812Z,20.38
2018-05-26T01:22:48.934Z,20.39
2018-05-26T01:25:17.003Z,20.30
2018-05-26T01:27:44.789Z,20.24
2018-05-26T01:30:13.045Z,20.18
2018-05-26T01:32:41.219Z,20.12
2018-05-26T01:35:08.924Z,20.01
2018-05-26T01:37:37.026Z,20.01
2018-05-26T01:40:05.916Z,19.95
2018-05-26T01:42:33.664Z,19.94
2018-05-26T01:45:01.933Z,19.89
2018-05-26T01:47:30.285Z,19.79
2018-05-26T01:49:58.128Z,19.79
2018-05-26T01:52:26.200Z,19.76
2018-05-26T01:54:54.714Z,19.72
2018-05-26T01:57:22.509Z,19.61
2018-05-26T01:59:50.481Z,19.50
2018-05-26T02:02:18.919Z,19.46
2018-05-26T02:04:46.706Z,19.41
2018-05-26T02:07:14.833Z,19.35
2018-05-26T02:09:43.046Z,19.30
2018-05-26T02:12:10.971Z,19.24
2018-05-26T02:14:39.248Z,19.22
2018-05-26T02:17:07.419Z,19.22
2018-05-26T02:19:35.595Z,19.23
2018-05-26T02:22:03.871Z,19.25
2018-05-26T02:24:31.940Z,19.23
2018-05-26T02:26:59.861Z,19.18
2018-05-26T02:29:27.879Z,19.15
2018-05-26T02:31:55.954Z,19.08
2018-05-26T02:34:24.119Z,19.04
2018-05-26T02:36:52.279Z,18.88
2018-05-26T02:39:20.370Z,18.99
2018-05-26T02:41:48.442Z,18.95
2018-05-26T02:44:16.618Z,18.86
2018-05-26T02:46:44.628Z,18.85
2018-05-26T02:49:12.877Z,18.88
2018-05-26T02:51:41.347Z,18.83
2018-05-26T02:54:09.718Z,18.88
2018-05-26T02:56:37.587Z,18.87
2018-05-26T02:59:05.921Z,18.76
2018-05-26T03:01:34.136Z,18.69
2018-05-26T03:04:01.390Z,18.67
2018-05-26T03:06:35.416Z,18.63
2018-05-26T03:09:08.896Z,18.63
2018-05-26T03:11:42.805Z,18.65
2018-05-26T03:14:16.410Z,18.68
2018-05-26T03:16:52.366Z,18.60
2018-05-26T03:19:20.330Z,18.60
2018-05-26T03:21:48.636Z,18.62
2018-05-26T03:24:16.783Z,18.67
2018-05-26T03:26:44.602Z,18.67
2018-05-26T03:29:12.746Z,18.65
2018-05-26T03:31:41.063Z,18.61
2018-05-26T03:34:08.864Z,18.65
2018-05-26T03:36:36.991Z,18.66
2018-05-26T03:39:05.105Z,18.68
2018-05-26T03:41:32.973Z,18.68
2018-05-26T03:44:01.307Z,18.64
2018-05-26T03:46:29.320Z,18.67
2018-05-26T03:48:57.177Z,18.74
2018-05-26T03:51:25.491Z,18.78
2018-05-26T03:53:53.735Z,18.80
2018-05-26T03:56:33.584Z,18.80
2018-05-26T03:59:13.521Z,18.78
2018-05-26T04:01:41.811Z,18.78
2018-05-26T04:04:09.683Z,18.80
2018-05-26T04:06:38.667Z,18.84
2018-05-26T04:09:07.034Z,18.82
2018-05-26T04:11:34.775Z,18.89
2018-05-26T04:14:02.984Z,18.92
2018-05-26T04:16:31.161Z,18.96
2018-05-26T04:18:59.028Z,18.98
2018-05-26T04:21:27.095Z,19.03
2018-05-26T04:23:55.533Z,19.05
2018-05-26T04:26:23.296Z,19.00
2018-05-26T04:28:51.616Z,18.96
2018-05-26T04:31:20.114Z,18.95
2018-05-26T04:33:48.069Z,18.86
2018-05-26T04:36:16.315Z,18.94
2018-05-26T04:38:44.638Z,19.03
2018-05-26T04:41:12.485Z,19.07
2018-05-26T04:43:40.658Z,19.16
2018-05-26T04:46:08.935Z,19.21
2018-05-26T04:48:38.045Z,19.23
2018-05-26T04:51:06.102Z,19.17
2018-05-26T04:53:34.993Z,19.38
2018-05-26T04:56:02.861Z,19.32
2018-05-26T04:58:31.032Z,19.30
2018-05-26T05:00:59.560Z,19.33
2018-05-26T05:03:27.378Z,19.37
2018-05-26T05:05:55.556Z,19.39
2018-05-26T05:08:24.238Z,19.34
2018-05-26T05:10:52.104Z,19.34
2018-05-26T05:13:20.177Z,19.33
2018-05-26T05:15:48.455Z,19.38
2018-05-26T05:18:16.247Z,19.40
2018-05-26T05:20:44.386Z,19.42
2018-05-26T05:23:12.560Z,19.36
2018-05-26T05:25:40.678Z,19.49
2018-05-26T05:28:08.731Z,19.51
2018-05-26T05:30:36.953Z,19.54
2018-05-26T05:33:05.071Z,19.59
2018-05-26T05:35:33.120Z,19.67
2018-05-26T05:38:01.299Z,19.71
2018-05-26T05:40:29.318Z,19.84
2018-05-26T05:42:57.543Z,19.92
2018-05-26T05:45:25.603Z,20.01
2018-05-26T05:47:53.683Z,20.06
2018-05-26T05:50:21.689Z,20.07
2018-05-26T05:52:50.031Z,20.10
2018-05-26T05:55:18.028Z,20.13
2018-05-26T05:57:45.995Z,20.20
2018-05-26T06:00:14.258Z,20.31
2018-05-26T06:02:42.524Z,20.36
2018-05-26T06:05:10.799Z,20.46
2018-05-26T06:07:38.867Z,20.54
2018-05-26T06:10:07.250Z,20.50
2018-05-26T06:12:35.461Z,20.59
2018-05-26T06:15:03.496Z,20.66
2018-05-26T06:17:31.500Z,20.79
2018-05-26T06:19:59.869Z,20.91
2018-05-26T06:22:27.909Z,20.92
2018-05-26T06:24:55.841Z,21.00
2018-05-26T06:27:23.952Z,21.05
2018-05-26T06:29:52.199Z,21.10
2018-05-26T06:32:20.223Z,21.20
2018-05-26T06:34:48.474Z,21.22
2018-05-26T06:37:16.601Z,21.15
2018-05-26T06:39:44.544Z,21.37
2018-05-26T06:42:12.558Z,21.43
2018-05-26T06:44:40.723Z,21.44
2018-05-26T06:47:08.939Z,21.58
2018-05-26T06:49:36.918Z,21.72
2018-05-26T06:52:05.190Z,21.80
2018-05-26T06:54:33.221Z,21.78
2018-05-26T06:57:01.481Z,21.79
2018-05-26T06:59:29.683Z,21.86
2018-05-26T07:01:57.768Z,21.89
2018-05-26T07:04:25.853Z,21.94
2018-05-26T07:06:54.317Z,21.93
2018-05-26T07:09:22.285Z,21.97
2018-05-26T07:11:50.563Z,22.00
2018-05-26T07:14:18.668Z,22.03
2018-05-26T07:16:46.705Z,22.05
2018-05-26T07:19:14.758Z,22.10
2018-05-26T07:21:42.952Z,22.19
2018-05-26T07:24:10.980Z,22.28
2018-05-26T07:26:39.095Z,22.29
2018-05-26T07:29:07.373Z,22.38
2018-05-26T07:31:35.674Z,22.52
2018-05-26T07:34:03.730Z,22.61
2018-05-26T07:36:31.886Z,23.73
2018-05-26T07:39:00.362Z,24.60
2018-05-26T07:41:28.444Z,23.88
2018-05-26T07:43:56.597Z,23.33
2018-05-26T07:46:24.683Z,23.35
2018-05-26T07:48:52.512Z,23.40
2018-05-26T07:51:20.758Z,24.03
2018-05-26T07:53:48.740Z,25.14
2018-05-26T07:56:16.975Z,26.13
2018-05-26T07:58:45.225Z,26.76
2018-05-26T08:01:13.417Z,26.35
2018-05-26T08:03:41.489Z,26.07
2018-05-26T08:06:09.485Z,25.78
2018-05-26T08:08:37.428Z,25.69
2018-05-26T08:11:05.824Z,25.64
2018-05-26T08:13:33.968Z,25.59
2018-05-26T08:16:01.846Z,25.47
2018-05-26T08:18:30.029Z,25.76
2018-05-26T08:20:58.423Z,25.84
2018-05-26T08:23:26.469Z,25.98
2018-05-26T08:25:54.604Z,25.98
2018-05-26T08:28:22.963Z,25.94
2018-05-26T08:30:50.891Z,25.60
2018-05-26T08:33:18.858Z,25.71
2018-05-26T08:35:47.178Z,25.86
2018-05-26T08:38:15.103Z,25.90
2018-05-26T08:40:43.375Z,25.72
2018-05-26T08:43:11.961Z,25.70
2018-05-26T08:45:40.136Z,25.98
2018-05-26T08:48:08.306Z,26.30
2018-05-26T08:50:36.684Z,26.26
2018-05-26T08:53:04.749Z,26.57
2018-05-26T08:55:32.903Z,26.96
2018-05-26T08:58:01.253Z,27.05
2018-05-26T09:00:29.072Z,27.15
2018-05-26T09:02:57.186Z,26.65
2018-05-26T09:05:25.570Z,26.52
2018-05-26T09:07:53.344Z,26.51
2018-05-26T09:10:21.468Z,26.52
2018-05-26T09:12:49.735Z,26.58
2018-05-26T09:15:17.816Z,26.49
2018-05-26T09:17:46.084Z,26.14
2018-05-26T09:20:14.385Z,26.22
2018-05-26T09:22:42.432Z,26.27
2018-05-26T09:25:10.711Z,26.46
2018-05-26T09:27:38.979Z,26.47
2018-05-26T09:30:06.851Z,26.64
2018-05-26T09:32:34.916Z,26.45
2018-05-26T09:35:03.424Z,26.40
2018-05-26T09:37:31.272Z,26.60
2018-05-26T09:39:59.476Z,26.55
2018-05-26T09:42:27.588Z,26.59
2018-05-26T09:44:55.483Z,26.52
2018-05-26T09:47:23.556Z,26.33
2018-05-26T09:49:51.853Z,26.18
2018-05-26T09:52:19.896Z,26.16
2018-05-26T09:54:48.072Z,26.13
2018-05-26T09:57:16.870Z,26.21
2018-05-26T09:59:44.988Z,26.15
2018-05-26T10:02:13.179Z,26.27
2018-05-26T10:04:41.485Z,26.47
2018-05-26T10:07:09.353Z,26.27
2018-05-26T10:09:37.627Z,25.99
2018-05-26T10:12:06.224Z,26.28
2018-05-26T10:14:34.172Z,26.42
2018-05-26T10:17:02.456Z,26.30
2018-05-26T10:19:30.585Z,26.27
2018-05-26T10:21:58.399Z,26.15
2018-05-26T10:24:26.465Z,26.24
2018-05-26T10:26:54.745Z,26.50
2018-05-26T10:29:22.589Z,26.80
2018-05-26T10:31:51.414Z,26.31
2018-05-26T10:34:19.648Z,26.32
2018-05-26T10:36:47.537Z,26.28
2018-05-26T10:39:15.714Z,26.19
2018-05-26T10:41:43.650Z,26.10
2018-05-26T10:44:11.444Z,26.14
2018-05-26T10:46:39.557Z,26.07
2018-05-26T10:49:07.688Z,26.06
2018-05-26T10:51:35.655Z,26.10
2018-05-26T10:54:03.987Z,26.01
2018-05-26T10:56:32.119Z,25.89
2018-05-26T10:58:59.974Z,25.95
2018-05-26T11:01:28.250Z,26.19
2018-05-26T11:03:56.219Z,26.13
2018-05-26T11:06:24.017Z,26.13
2018-05-26T11:08:52.278Z,25.84
2018-05-26T11:11:20.450Z,25.79
2018-05-26T11:13:48.224Z,25.67
2018-05-26T11:16:16.735Z,25.66
2018-05-26T11:18:44.649Z,25.78
2018-05-26T11:21:12.511Z,25.81
2018-05-26T11:23:41.099Z,26.05
2018-05-26T11:26:09.136Z,26.15
2018-05-26T11:28:36.930Z,26.19
2018-05-26T11:31:05.249Z,26.36
2018-05-26T11:33:33.297Z,26.48
2018-05-26T11:36:01.148Z,26.46
2018-05-26T11:38:29.421Z,26.49
2018-05-26T11:40:57.450Z,26.69
2018-05-26T11:43:25.310Z,26.78
2018-05-26T11:45:53.670Z,26.69
2018-05-26T11:48:21.702Z,26.62
2018-05-26T11:50:49.573Z,26.54
2018-05-26T11:53:17.999Z,26.61
2018-05-26T11:55:46.128Z,26.77
2018-05-26T11:58:13.994Z,26.65
2018-05-26T12:00:42.473Z,26.83
2018-05-26T12:03:10.548Z,27.04
2018-05-26T12:05:38.404Z,27.07
2018-05-26T12:08:06.689Z,26.92
2018-05-26T12:10:34.753Z,27.09
2018-05-26T12:13:02.617Z,27.13
2018-05-26T12:15:30.778Z,27.05
2018-05-26T12:17:59.076Z,27.10
2018-05-26T12:20:27.040Z,27.14
2018-05-26T12:22:55.543Z,27.10
2018-05-26T12:25:23.733Z,26.95
2018-05-26T12:27:51.582Z,27.08
2018-05-26T12:30:19.861Z,27.29
2018-05-26T12:32:48.136Z,27.41
2018-05-26T12:35:15.982Z,27.41
2018-05-26T12:37:44.384Z,27.17
2018-05-26T12:40:12.633Z,26.90
2018-05-26T12:42:40.498Z,26.80
2018-05-26T12:45:08.877Z,26.66
2018-05-26T12:47:36.884Z,26.55
2018-05-26T12:50:04.650Z,26.72
2018-05-26T12:52:33.013Z,27.03
2018-05-26T12:55:01.365Z,27.19
2018-05-26T12:57:29.231Z,27.38
2018-05-26T12:59:57.499Z,27.26
2018-05-26T13:02:25.680Z,27.46
2018-05-26T13:04:53.477Z,27.07
2018-05-26T13:07:22.210Z,27.04
2018-05-26T13:09:50.303Z,27.19
2018-05-26T13:12:18.176Z,27.31
2018-05-26T13:14:47.199Z,27.36
2018-05-26T13:17:15.441Z,27.20
2018-05-26T13:19:45.134Z,27.21
2018-05-26T13:22:13.161Z,27.30
2018-05-26T13:24:41.292Z,27.36
2018-05-26T13:27:09.776Z,27.34
2018-05-26T13:29:37.891Z,27.50
2018-05-26T13:32:06.221Z,27.49
2018-05-26T13:34:34.320Z,27.48
2018-05-26T13:37:02.469Z,27.53
2018-05-26T13:39:30.534Z,27.55
2018-05-26T13:41:58.430Z,27.56
2018-05-26T13:44:26.587Z,27.73
2018-05-26T13:46:54.751Z,27.64
2018-05-26T13:49:23.141Z,27.73
2018-05-26T13:51:51.420Z,27.71
2018-05-26T13:54:19.585Z,27.54
2018-05-26T13:56:47.696Z,27.48
2018-05-26T13:59:15.650Z,27.24
2018-05-26T14:01:43.693Z,27.26
2018-05-26T14:04:11.863Z,26.98
2018-05-26T14:06:40.183Z,26.95
2018-05-26T14:09:08.745Z,26.91
2018-05-26T14:11:37.105Z,26.98
2018-05-26T14:14:05.272Z,27.04
2018-05-26T14:16:33.553Z,27.01
2018-05-26T14:19:01.677Z,27.03
2018-05-26T14:21:29.717Z,27.03
2018-05-26T14:23:57.951Z,27.03
2018-05-26T14:26:26.240Z,27.17
2018-05-26T14:28:54.314Z,27.20
2018-05-26T14:31:22.620Z,27.27
2018-05-26T14:33:50.484Z,27.10
2018-05-26T14:36:18.754Z,26.91
2018-05-26T14:38:46.771Z,26.89
2018-05-26T14:41:14.734Z,27.02
2018-05-26T14:43:43.050Z,26.97
2018-05-26T14:46:11.047Z,27.13
2018-05-26T14:48:38.949Z,27.05
2018-05-26T14:51:07.365Z,27.04
2018-05-26T14:53:35.437Z,27.02
2018-05-26T14:56:03.299Z,26.71
2018-05-26T14:58:31.933Z,26.66
2018-05-26T15:01:00.221Z,26.79
2018-05-26T15:03:28.130Z,26.97
2018-05-26T15:05:56.482Z,26.90
2018-05-26T15:08:24.580Z,26.95
2018-05-26T15:10:52.649Z,27.31
2018-05-26T15:13:21.281Z,26.87
2018-05-26T15:15:49.212Z,26.79
2018-05-26T15:18:18.101Z,26.66
2018-05-26T15:20:46.788Z,26.77
2018-05-26T15:23:15.167Z,26.80
2018-05-26T15:25:43.329Z,27.09
2018-05-26T15:28:11.849Z,27.12
2018-05-26T15:30:40.267Z,27.26
2018-05-26T15:33:08.022Z,27.48
2018-05-26T15:35:36.473Z,27.57
2018-05-26T15:38:04.471Z,27.67
2018-05-26T15:40:32.341Z,27.62
2018-05-26T15:43:00.546Z,27.37
2018-05-26T15:45:28.695Z,27.29
2018-05-26T15:47:56.509Z,27.35
2018-05-26T15:50:24.944Z,27.35
2018-05-26T15:52:53.010Z,27.21
2018-05-26T15:55:21.060Z,27.15
2018-05-26T15:57:49.114Z,27.14
2018-05-26T16:00:17.250Z,27.18
2018-05-26T16:02:45.125Z,26.95
2018-05-26T16:05:13.785Z,26.71
2018-05-26T16:07:41.618Z,26.71
2018-05-26T16:10:09.374Z,26.78
2018-05-26T16:12:37.508Z,26.69
2018-05-26T16:15:05.585Z,26.73
2018-05-26T16:17:33.434Z,26.67
2018-05-26T16:20:01.907Z,26.63
2018-05-26T16:22:30.376Z,26.68
2018-05-26T16:24:58.200Z,26.76
2018-05-26T16:27:26.197Z,26.71
2018-05-26T16:29:54.465Z,26.65
2018-05-26T16:32:22.196Z,26.42
2018-05-26T16:34:50.198Z,26.41
2018-05-26T16:37:18.666Z,26.24
2018-05-26T16:39:46.520Z,26.20
2018-05-26T16:42:14.503Z,26.05
2018-05-26T16:44:43.036Z,26.12
2018-05-26T16:47:10.912Z,26.18
2018-05-26T16:49:38.912Z,26.07
2018-05-26T16:52:07.259Z,26.10
2018-05-26T16:54:36.073Z,25.87
2018-05-26T16:57:04.013Z,26.03
2018-05-26T16:59:32.227Z,26.07
2018-05-26T17:02:00.161Z,26.05
2018-05-26T17:04:28.366Z,25.84
2018-05-26T17:06:56.843Z,26.05
2018-05-26T17:09:25.106Z,25.93
2018-05-26T17:11:52.981Z,26.03
2018-05-26T17:14:21.198Z,25.93
2018-05-26T17:16:49.491Z,25.61
2018-05-26T17:19:17.576Z,25.48
2018-05-26T17:21:45.789Z,25.52
2018-05-26T17:24:13.839Z,25.47
2018-05-26T17:26:42.228Z,25.47
2018-05-26T17:29:10.368Z,25.47
2018-05-26T17:31:38.749Z,25.43
2018-05-26T17:34:08.292Z,25.41
2018-05-26T17:36:38.110Z,25.44
2018-05-26T17:39:06.124Z,25.36
2018-05-26T17:41:34.024Z,25.27
2018-05-26T17:44:01.978Z,25.30
2018-05-26T17:46:30.147Z,25.09
2018-05-26T17:48:58.217Z,25.03
2018-05-26T17:51:26.450Z,24.92
2018-05-26T17:53:54.570Z,24.84
2018-05-26T17:56:23.094Z,24.82
2018-05-26T17:58:51.388Z,24.76
2018-05-26T18:01:19.339Z,24.74
2018-05-26T18:03:47.308Z,24.70
2018-05-26T18:06:15.401Z,24.64
2018-05-26T18:08:43.818Z,24.53
2018-05-26T18:11:12.158Z,24.28
2018-05-26T18:13:40.431Z,24.10
2018-05-26T18:16:08.355Z,24.00
2018-05-26T18:18:36.431Z,23.87
2018-05-26T18:21:04.783Z,23.76
2018-05-26T18:23:32.722Z,23.70
2018-05-26T18:26:01.123Z,23.60
2018-05-26T18:28:29.204Z,23.56
2018-05-26T18:30:57.060Z,23.61
2018-05-26T18:33:25.733Z,23.62
2018-05-26T18:35:54.039Z,23.72
2018-05-26T18:38:21.895Z,23.65
2018-05-26T18:40:50.064Z,23.25
2018-05-26T18:43:18.145Z,23.39
2018-05-26T18:45:46.008Z,23.47
2018-05-26T18:48:14.214Z,23.50
2018-05-26T18:50:42.556Z,23.41
2018-05-26T18:53:10.371Z,23.43
2018-05-26T18:55:38.753Z,23.46
2018-05-26T18:58:06.819Z,23.23
2018-05-26T19:00:34.642Z,23.04
2018-05-26T19:03:03.018Z,22.95
2018-05-26T19:05:30.935Z,22.97
2018-05-26T19:07:58.634Z,22.90
2018-05-26T19:10:27.025Z,22.91
2018-05-26T19:12:55.045Z,22.86
2018-05-26T19:15:23.166Z,22.85
2018-05-26T19:17:51.365Z,22.81
2018-05-26T19:20:19.771Z,22.74
2018-05-26T19:22:47.620Z,22.68
2018-05-26T19:25:16.002Z,22.64
2018-05-26T19:27:43.932Z,22.55
2018-05-26T19:30:11.798Z,22.46
2018-05-26T19:32:39.976Z,22.51
2018-05-26T19:35:08.006Z,22.51
2018-05-26T19:37:35.907Z,22.45
2018-05-26T19:40:04.647Z,22.39
2018-05-26T19:42:32.857Z,22.39
2018-05-26T19:45:00.949Z,22.32
2018-05-26T19:47:29.354Z,22.31
2018-05-26T19:49:57.477Z,22.33
2018-05-26T19:52:25.706Z,22.22
2018-05-26T19:54:53.902Z,22.29
2018-05-26T19:57:22.201Z,22.29
2018-05-26T19:59:50.098Z,22.21
2018-05-26T20:02:18.260Z,22.10
2018-05-26T20:04:46.522Z,21.99
2018-05-26T20:07:14.418Z,21.97
2018-05-26T20:09:42.482Z,21.93
2018-05-26T20:12:11.458Z,22.00
2018-05-26T20:14:39.333Z,21.88
2018-05-26T20:17:07.507Z,21.88
2018-05-26T20:19:35.702Z,21.99
2018-05-26T20:22:03.713Z,22.06
2018-05-26T20:24:32.232Z,21.93
2018-05-26T20:27:00.713Z,21.91
2018-05-26T20:29:28.566Z,21.98
2018-05-26T20:31:56.757Z,21.95
2018-05-26T20:34:25.441Z,21.88
2018-05-26T20:36:53.511Z,21.78
2018-05-26T20:39:21.804Z,21.66
2018-05-26T20:41:50.100Z,21.56
2018-05-26T20:44:17.911Z,21.49
2018-05-26T20:46:46.237Z,21.45
2018-05-26T20:49:14.495Z,21.43
2018-05-26T20:51:42.333Z,21.40
2018-05-26T20:54:10.420Z,21.36
2018-05-26T20:56:38.798Z,21.40
2018-05-26T20:59:06.762Z,21.30
2018-05-26T21:01:34.778Z,21.46
2018-05-26T21:04:03.437Z,21.31
2018-05-26T21:06:31.309Z,21.32
2018-05-26T21:08:59.562Z,21.27
2018-05-26T21:11:28.145Z,21.26
2018-05-26T21:13:56.217Z,21.20
2018-05-26T21:16:24.494Z,21.17
2018-05-26T21:18:52.561Z,21.24
2018-05-26T21:21:20.839Z,21.31
2018-05-26T21:23:48.975Z,21.28
2018-05-26T21:26:17.084Z,21.19
2018-05-26T21:28:45.096Z,21.18
2018-05-26T21:31:13.825Z,21.17
2018-05-26T21:33:42.117Z,21.16
2018-05-26T21:36:10.748Z,21.11
2018-05-26T21:38:39.079Z,21.01
2018-05-26T21:41:11.675Z,21.12
2018-05-26T21:43:40.071Z,21.15
2018-05-26T21:46:07.903Z,21.11
2018-05-26T21:48:36.813Z,21.08
2018-05-26T21:51:05.213Z,20.98
2018-05-26T21:53:33.034Z,20.91
2018-05-26T21:56:01.210Z,20.81
2018-05-26T21:58:29.687Z,20.85
2018-05-26T22:00:57.549Z,20.79
2018-05-26T22:03:25.728Z,20.73
2018-05-26T22:05:54.004Z,20.77
2018-05-26T22:08:21.845Z,20.80
2018-05-26T22:10:50.262Z,20.88
2018-05-26T22:13:18.665Z,20.99
2018-05-26T22:15:46.428Z,21.01
2018-05-26T22:18:14.564Z,21.03
2018-05-26T22:20:43.050Z,21.00
2018-05-26T22:23:11.524Z,20.90
2018-05-26T22:25:39.598Z,20.82
2018-05-26T22:28:07.920Z,20.75
2018-05-26T22:30:35.744Z,20.64
2018-05-26T22:33:03.813Z,20.59
2018-05-26T22:35:32.424Z,20.59
2018-05-26T22:38:00.262Z,20.55
2018-05-26T22:40:28.335Z,20.64
2018-05-26T22:42:57.620Z,20.79
2018-05-26T22:45:25.448Z,20.81
2018-05-26T22:47:53.572Z,20.86
2018-05-26T22:50:21.849Z,20.72
2018-05-26T22:52:49.699Z,20.72
2018-05-26T22:55:17.682Z,20.62
2018-05-26T22:57:46.370Z,20.54
2018-05-26T23:00:14.336Z,20.53
2018-05-26T23:02:42.613Z,20.54
2018-05-26T23:05:10.823Z,20.42
2018-05-26T23:07:38.665Z,20.34
2018-05-26T23:10:06.827Z,20.31
2018-05-26T23:12:35.205Z,20.29
2018-05-26T23:15:03.000Z,20.22
2018-05-26T23:17:30.933Z,20.22
2018-05-26T23:19:59.639Z,20.21
2018-05-26T23:22:27.388Z,20.31
2018-05-26T23:24:55.533Z,20.26
2018-05-26T23:27:23.837Z,20.46
2018-05-26T23:29:51.618Z,20.46
2018-05-26T23:32:19.669Z,20.62
2018-05-26T23:34:48.094Z,20.79
2018-05-26T23:37:15.923Z,20.80
2018-05-26T23:39:43.841Z,20.82
2018-05-26T23:42:12.303Z,20.78
2018-05-26T23:44:40.074Z,20.77
2018-05-26T23:47:08.830Z,20.73
2018-05-26T23:49:37.120Z,20.62
2018-05-26T23:52:05.060Z,20.59
2018-05-26T23:54:33.230Z,20.65
2018-05-26T23:57:01.816Z,20.64
2018-05-26T23:59:29.789Z,20.65
